createdAt,value
2018-04-15T00:00:59.002Z,99756.91
2018-04-15T00:03:26.743Z,99751.63
2018-04-15T00:05:54.254Z,99756.52
2018-04-15T00:08:22.623Z,99753.09
2018-04-15T00:10:50.112Z,99757.95
2018-04-15T00:13:17.616Z,99757.54
2018-04-15T00:15:45.181Z,99757.19
2018-04-15T00:18:12.655Z,99756.98
2018-04-15T00:20:40.164Z,99756.34
2018-04-15T00:23:07.767Z,99759.15
2018-04-15T00:25:35.765Z,99753.73
2018-04-15T00:28:03.250Z,99744.47
2018-04-15T00:30:30.914Z,99746.47
2018-04-15T00:32:58.800Z,99745.68
2018-04-15T00:35:27.083Z,99738.98
2018-04-15T00:37:56.372Z,99734.53
2018-04-15T00:40:24.057Z,99734.69
2018-04-15T00:42:51.622Z,99732.76
2018-04-15T00:45:19.147Z,99732.41
2018-04-15T00:47:46.646Z,99731.60
2018-04-15T00:50:14.173Z,99734.73
2018-04-15T00:52:41.655Z,99728.88
2018-04-15T00:55:09.564Z,99724.54
2018-04-15T00:57:37.048Z,99726.73
2018-04-15T01:00:04.650Z,99717.16
2018-04-15T01:02:32.156Z,99708.17
2018-04-15T01:04:59.663Z,99704.81
2018-04-15T01:07:27.159Z,99708.31
2018-04-15T01:09:55.285Z,99700.66
2018-04-15T01:12:22.801Z,99703.69
2018-04-15T01:14:50.802Z,99684.48
2018-04-15T01:17:18.266Z,99687.59
2018-04-15T01:19:45.755Z,99680.50
2018-04-15T01:22:13.393Z,99679.41
2018-04-15T01:24:40.850Z,99682.17
2018-04-15T01:27:08.403Z,99685.55
2018-04-15T01:29:37.423Z,99688.61
2018-04-15T01:32:06.115Z,99683.47
2018-04-15T01:34:33.692Z,99683.31
2018-04-15T01:37:01.192Z,99679.28
2018-04-15T01:39:28.698Z,99679.05
2018-04-15T01:41:56.258Z,99680.83
2018-04-15T01:44:23.794Z,99676.23
2018-04-15T01:46:51.304Z,99673.73
2018-04-15T01:49:18.799Z,99676.05
2018-04-15T01:51:46.298Z,99674.04
2018-04-15T01:54:14.643Z,99672.07
2018-04-15T01:56:42.112Z,99665.70
2018-04-15T01:59:09.594Z,99667.01
2018-04-15T02:01:37.120Z,99663.70
2018-04-15T02:04:05.120Z,99661.14
2018-04-15T02:06:32.634Z,99663.76
2018-04-15T02:09:00.130Z,99654.39
2018-04-15T02:11:27.694Z,99650.45
2018-04-15T02:13:55.267Z,99650.06
2018-04-15T02:16:22.808Z,99647.58
2018-04-15T02:18:50.311Z,99645.97
2018-04-15T02:21:17.818Z,99642.17
2018-04-15T02:23:45.368Z,99644.31
2018-04-15T02:26:12.859Z,99642.66
2018-04-15T02:28:40.892Z,99651.59
2018-04-15T02:31:09.210Z,99642.62
2018-04-15T02:33:36.691Z,99640.53
2018-04-15T02:36:04.214Z,99640.52
2018-04-15T02:38:31.805Z,99640.53
2018-04-15T02:40:59.327Z,99638.03
2018-04-15T02:43:26.909Z,99635.98
2018-04-15T02:45:54.408Z,99634.67
2018-04-15T02:48:21.879Z,99639.77
2018-04-15T02:50:49.401Z,99641.92
2018-04-15T02:53:16.886Z,99633.80
2018-04-15T02:55:44.359Z,99625.69
2018-04-15T02:58:11.856Z,99627.50
2018-04-15T03:00:39.403Z,99636.48
2018-04-15T03:03:06.929Z,99635.68
2018-04-15T03:05:34.439Z,99638.72
2018-04-15T03:08:01.940Z,99639.17
2018-04-15T03:10:29.528Z,99637.52
2018-04-15T03:12:57.035Z,99637.09
2018-04-15T03:15:24.526Z,99626.89
2018-04-15T03:17:52.018Z,99623.47
2018-04-15T03:20:19.546Z,99618.34
2018-04-15T03:22:47.125Z,99616.59
2018-04-15T03:25:14.628Z,99615.79
2018-04-15T03:27:42.129Z,99620.37
2018-04-15T03:30:09.670Z,99619.53
2018-04-15T03:32:37.162Z,99618.72
2018-04-15T03:35:04.680Z,99621.30
2018-04-15T03:37:32.159Z,99622.19
2018-04-15T03:39:59.690Z,99622.62
2018-04-15T03:42:27.289Z,99622.19
2018-04-15T03:44:54.813Z,99620.92
2018-04-15T03:47:22.401Z,99620.59
2018-04-15T03:49:49.881Z,99617.11
2018-04-15T03:52:17.383Z,99623.95
2018-04-15T03:54:44.969Z,99625.30
2018-04-15T03:57:12.449Z,99619.75
2018-04-15T03:59:39.939Z,99621.41
2018-04-15T04:02:07.421Z,99624.39
2018-04-15T04:04:34.926Z,99626.15
2018-04-15T04:07:02.514Z,99626.16
2018-04-15T04:09:30.042Z,99624.91
2018-04-15T04:11:57.627Z,99626.21
2018-04-15T04:14:25.137Z,99623.66
2018-04-15T04:16:52.620Z,99620.71
2018-04-15T04:19:31.845Z,99616.44
2018-04-15T04:22:11.062Z,99622.41
2018-04-15T04:24:50.192Z,99623.95
2018-04-15T04:27:17.687Z,99620.92
2018-04-15T04:29:45.194Z,99617.02
2018-04-15T04:32:12.688Z,99624.70
2018-04-15T04:34:40.251Z,99621.18
2018-04-15T04:37:07.981Z,99629.64
2018-04-15T04:39:35.447Z,99630.81
2018-04-15T04:42:02.961Z,99627.28
2018-04-15T04:44:30.447Z,99631.92
2018-04-15T04:46:57.932Z,99627.15
2018-04-15T04:49:25.421Z,99623.12
2018-04-15T04:51:52.930Z,99628.56
2018-04-15T04:54:20.443Z,99623.38
2018-04-15T04:56:47.941Z,99619.78
2018-04-15T04:59:16.102Z,99627.78
2018-04-15T05:01:43.575Z,99627.59
2018-04-15T05:04:11.096Z,99628.19
2018-04-15T05:06:38.574Z,99618.50
2018-04-15T05:09:06.103Z,99617.88
2018-04-15T05:11:33.586Z,99623.73
2018-04-15T05:14:01.060Z,99617.12
2018-04-15T05:16:28.565Z,99609.66
2018-04-15T05:18:56.057Z,99612.72
2018-04-15T05:21:23.534Z,99614.34
2018-04-15T05:23:51.011Z,99615.55
2018-04-15T05:26:18.542Z,99611.14
2018-04-15T05:28:46.078Z,99612.77
2018-04-15T05:31:13.600Z,99617.72
2018-04-15T05:33:41.087Z,99623.59
2018-04-15T05:36:08.631Z,99615.28
2018-04-15T05:38:36.149Z,99618.09
2018-04-15T05:41:03.627Z,99618.21
2018-04-15T05:43:31.160Z,99617.25
2018-04-15T05:45:58.639Z,99619.74
2018-04-15T05:48:26.155Z,99618.39
2018-04-15T05:50:53.687Z,99611.72
2018-04-15T05:53:21.176Z,99608.58
2018-04-15T05:55:48.678Z,99610.13
2018-04-15T05:58:16.212Z,99608.75
2018-04-15T06:00:43.690Z,99609.73
2018-04-15T06:03:11.189Z,99611.45
2018-04-15T06:05:38.742Z,99610.44
2018-04-15T06:08:06.920Z,99608.98
2018-04-15T06:10:34.378Z,99602.72
2018-04-15T06:13:01.871Z,99598.20
2018-04-15T06:15:29.344Z,99586.18
2018-04-15T06:17:56.891Z,99582.66
2018-04-15T06:20:24.372Z,99575.19
2018-04-15T06:22:51.898Z,99579.00
2018-04-15T06:25:19.401Z,99581.19
2018-04-15T06:27:46.902Z,99582.66
2018-04-15T06:30:14.406Z,99592.42
2018-04-15T06:32:41.894Z,99595.16
2018-04-15T06:35:09.392Z,99596.42
2018-04-15T06:37:37.452Z,99592.12
2018-04-15T06:40:04.933Z,99582.89
2018-04-15T06:42:32.410Z,99579.67
2018-04-15T06:44:59.886Z,99578.09
2018-04-15T06:47:27.364Z,99565.23
2018-04-15T06:49:54.861Z,99574.16
2018-04-15T06:52:22.335Z,99573.87
2018-04-15T06:54:50.273Z,99585.62
2018-04-15T06:57:17.770Z,99581.36
2018-04-15T06:59:45.500Z,99588.85
2018-04-15T07:02:13.009Z,99584.21
2018-04-15T07:04:40.524Z,99585.50
2018-04-15T07:07:08.051Z,99582.80
2018-04-15T07:09:35.627Z,99579.02
2018-04-15T07:12:03.161Z,99577.89
2018-04-15T07:14:30.674Z,99574.13
2018-04-15T07:16:59.132Z,99570.81
2018-04-15T07:19:26.646Z,99565.88
2018-04-15T07:21:54.187Z,99566.78
2018-04-15T07:24:21.680Z,99564.01
2018-04-15T07:26:49.178Z,99558.13
2018-04-15T07:29:16.672Z,99570.09
2018-04-15T07:31:44.202Z,99564.23
2018-04-15T07:34:11.706Z,99565.05
2018-04-15T07:36:39.277Z,99569.41
2018-04-15T07:39:06.743Z,99566.97
2018-04-15T07:41:34.276Z,99563.61
2018-04-15T07:44:01.747Z,99560.53
2018-04-15T07:46:30.209Z,99564.03
2018-04-15T07:48:57.704Z,99559.77
2018-04-15T07:51:25.200Z,99558.58
2018-04-15T07:53:52.718Z,99547.73
2018-04-15T07:56:20.228Z,99547.09
2018-04-15T07:58:47.743Z,99551.45
2018-04-15T08:01:15.261Z,99551.28
2018-04-15T08:03:42.776Z,99550.39
2018-04-15T08:06:10.275Z,99552.55
2018-04-15T08:08:37.762Z,99546.98
2018-04-15T08:11:05.289Z,99546.53
2018-04-15T08:13:32.792Z,99545.05
2018-04-15T08:16:00.287Z,99547.22
2018-04-15T08:18:27.775Z,99544.73
2018-04-15T08:20:55.268Z,99546.20
2018-04-15T08:23:22.782Z,99541.09
2018-04-15T08:25:50.436Z,99543.86
2018-04-15T08:28:17.951Z,99536.61
2018-04-15T08:30:45.507Z,99546.16
2018-04-15T08:33:13.024Z,99545.08
2018-04-15T08:35:40.540Z,99539.59
2018-04-15T08:38:08.059Z,99537.27
2018-04-15T08:40:35.527Z,99532.70
2018-04-15T08:43:03.018Z,99541.64
2018-04-15T08:45:30.554Z,99540.16
2018-04-15T08:47:58.022Z,99531.44
2018-04-15T08:50:25.530Z,99535.76
2018-04-15T08:52:53.072Z,99527.73
2018-04-15T08:55:20.580Z,99526.28
2018-04-15T08:57:48.179Z,99523.42
2018-04-15T09:00:15.710Z,99513.44
2018-04-15T09:02:43.263Z,99518.51
2018-04-15T09:05:10.777Z,99511.13
2018-04-15T09:07:38.260Z,99505.36
2018-04-15T09:10:05.863Z,99504.72
2018-04-15T09:12:33.402Z,99497.02
2018-04-15T09:15:00.919Z,99485.98
2018-04-15T09:17:28.399Z,99485.64
2018-04-15T09:19:55.954Z,99478.23
2018-04-15T09:22:23.414Z,99480.87
2018-04-15T09:24:50.921Z,99478.30
2018-04-15T09:27:18.417Z,99486.98
2018-04-15T09:29:45.938Z,99484.13
2018-04-15T09:32:13.448Z,99483.66
2018-04-15T09:34:40.932Z,99477.58
2018-04-15T09:37:09.114Z,99478.61
2018-04-15T09:39:36.734Z,99478.27
2018-04-15T09:42:04.401Z,99479.16
2018-04-15T09:44:31.919Z,99478.38
2018-04-15T09:46:59.517Z,99475.26
2018-04-15T09:49:27.296Z,99478.92
2018-04-15T09:51:54.879Z,99478.80
2018-04-15T09:54:27.723Z,99473.27
2018-04-15T09:56:55.440Z,99469.60
2018-04-15T09:59:22.966Z,99467.95
2018-04-15T10:01:50.528Z,99453.84
2018-04-15T10:04:18.025Z,99452.84
2018-04-15T10:06:45.629Z,99448.70
2018-04-15T10:09:13.388Z,99442.77
2018-04-15T10:11:40.862Z,99431.94
2018-04-15T10:14:09.258Z,99425.08
2018-04-15T10:16:36.788Z,99421.10
2018-04-15T10:19:04.267Z,99415.50
2018-04-15T10:21:32.731Z,99406.05
2018-04-15T10:24:00.323Z,99411.75
2018-04-15T10:26:27.941Z,99409.17
2018-04-15T10:28:57.385Z,99408.52
2018-04-15T10:31:24.839Z,99409.51
2018-04-15T10:33:52.368Z,99418.62
2018-04-15T10:36:19.893Z,99418.73
2018-04-15T10:38:47.999Z,99423.64
2018-04-15T10:41:15.584Z,99417.77
2018-04-15T10:43:44.166Z,99418.94
2018-04-15T10:46:11.683Z,99413.45
2018-04-15T10:48:39.246Z,99410.92
2018-04-15T10:51:06.764Z,99405.30
2018-04-15T10:53:34.536Z,99412.40
2018-04-15T10:56:02.170Z,99402.77
2018-04-15T10:58:29.737Z,99404.48
2018-04-15T11:00:57.339Z,99398.59
2018-04-15T11:03:25.062Z,99394.64
2018-04-15T11:05:52.609Z,99385.63
2018-04-15T11:08:20.192Z,99382.61
2018-04-15T11:10:47.982Z,99378.28
2018-04-15T11:13:15.563Z,99372.88
2018-04-15T11:15:43.218Z,99388.27
2018-04-15T11:18:10.727Z,99389.69
2018-04-15T11:20:38.299Z,99376.11
2018-04-15T11:23:05.812Z,99378.43
2018-04-15T11:25:33.344Z,99375.15
2018-04-15T11:28:00.860Z,99368.52
2018-04-15T11:30:29.335Z,99369.39
2018-04-15T11:32:56.827Z,99364.47
2018-04-15T11:35:24.327Z,99361.33
2018-04-15T11:37:51.872Z,99347.72
2018-04-15T11:40:19.367Z,99345.70
2018-04-15T11:42:46.867Z,99339.41
2018-04-15T11:45:14.570Z,99341.89
2018-04-15T11:47:42.067Z,99333.18
2018-04-15T11:50:09.616Z,99330.74
2018-04-15T11:52:37.083Z,99335.48
2018-04-15T11:55:04.585Z,99326.73
2018-04-15T11:57:32.096Z,99322.62
2018-04-15T11:59:59.594Z,99331.94
2018-04-15T12:02:27.124Z,99330.29
2018-04-15T12:04:54.610Z,99317.88
2018-04-15T12:07:22.130Z,99312.23
2018-04-15T12:09:49.601Z,99306.03
2018-04-15T12:12:18.801Z,99295.87
2018-04-15T12:14:46.289Z,99291.02
2018-04-15T12:17:13.839Z,99279.89
2018-04-15T12:19:41.263Z,99271.12
2018-04-15T12:22:08.811Z,99276.70
2018-04-15T12:24:36.396Z,99267.58
2018-04-15T12:27:03.871Z,99269.56
2018-04-15T12:29:31.426Z,99261.53
2018-04-15T12:31:59.105Z,99265.00
2018-04-15T12:34:26.854Z,99267.30
2018-04-15T12:36:54.409Z,99271.80
2018-04-15T12:39:21.890Z,99264.73
2018-04-15T12:41:49.409Z,99260.31
2018-04-15T12:44:16.976Z,99254.39
2018-04-15T12:46:44.496Z,99248.02
2018-04-15T12:49:12.035Z,99245.19
2018-04-15T12:51:39.572Z,99239.53
2018-04-15T12:54:07.085Z,99233.42
2018-04-15T12:56:35.519Z,99234.53
2018-04-15T12:59:07.922Z,99226.45
2018-04-15T13:01:36.153Z,99226.66
2018-04-15T13:04:14.726Z,99228.51
2018-04-15T13:06:42.228Z,99221.67
2018-04-15T13:09:10.280Z,99216.22
2018-04-15T13:11:37.747Z,99220.36
2018-04-15T13:14:05.260Z,99212.95
2018-04-15T13:16:32.757Z,99203.73
2018-04-15T13:19:00.240Z,99197.69
2018-04-15T13:21:27.841Z,99185.09
2018-04-15T13:23:55.356Z,99185.50
2018-04-15T13:26:22.838Z,99175.40
2018-04-15T13:28:50.345Z,99177.95
2018-04-15T13:31:17.876Z,99179.42
2018-04-15T13:33:45.362Z,99172.44
2018-04-15T13:36:12.891Z,99168.25
2018-04-15T13:38:40.398Z,99165.96
2018-04-15T13:41:07.866Z,99174.43
2018-04-15T13:43:35.347Z,99175.33
2018-04-15T13:46:05.688Z,99173.92
2018-04-15T13:48:33.231Z,99169.20
2018-04-15T13:51:00.739Z,99163.63
2018-04-15T13:53:28.247Z,99170.36
2018-04-15T13:55:55.864Z,99156.91
2018-04-15T13:58:23.348Z,99165.19
2018-04-15T14:00:50.998Z,99166.22
2018-04-15T14:03:18.488Z,99162.95
2018-04-15T14:05:46.035Z,99156.87
2018-04-15T14:08:13.581Z,99163.40
2018-04-15T14:10:41.108Z,99167.44
2018-04-15T14:13:09.615Z,99165.61
2018-04-15T14:15:37.253Z,99162.11
2018-04-15T14:18:04.771Z,99160.48
2018-04-15T14:20:32.298Z,99160.83
2018-04-15T14:22:59.792Z,99162.36
2018-04-15T14:25:27.359Z,99148.67
2018-04-15T14:27:54.792Z,99141.27
2018-04-15T14:30:22.310Z,99138.48
2018-04-15T14:32:49.837Z,99128.38
2018-04-15T14:35:17.332Z,99127.66
2018-04-15T14:37:44.806Z,99125.47
2018-04-15T14:40:12.299Z,99120.80
2018-04-15T14:42:39.907Z,99128.19
2018-04-15T14:45:07.463Z,99125.27
2018-04-15T14:47:34.953Z,99122.09
2018-04-15T14:50:02.659Z,99140.31
2018-04-15T14:52:30.168Z,99135.73
2018-04-15T14:54:58.141Z,99137.55
2018-04-15T14:57:25.629Z,99132.95
2018-04-15T14:59:53.221Z,99134.22
2018-04-15T15:02:20.769Z,99124.18
2018-04-15T15:04:48.260Z,99128.27
2018-04-15T15:07:15.834Z,99127.72
2018-04-15T15:09:43.411Z,99127.26
2018-04-15T15:12:10.902Z,99117.91
2018-04-15T15:14:39.061Z,99116.83
2018-04-15T15:17:06.568Z,99122.52
2018-04-15T15:19:34.102Z,99132.00
2018-04-15T15:22:01.592Z,99121.62
2018-04-15T15:24:29.823Z,99118.78
2018-04-15T15:26:57.359Z,99124.56
2018-04-15T15:31:57.276Z,99118.91
2018-04-15T15:34:24.790Z,99114.66
2018-04-15T15:36:52.388Z,99113.32
2018-04-15T15:39:19.908Z,99112.05
2018-04-15T15:41:47.421Z,99108.04
2018-04-15T15:44:14.920Z,99116.56
2018-04-15T15:46:42.474Z,99116.53
2018-04-15T15:49:10.080Z,99114.05
2018-04-15T15:51:37.582Z,99110.59
2018-04-15T15:54:05.145Z,99114.38
2018-04-15T15:56:32.744Z,99120.36
2018-04-15T15:59:00.251Z,99116.39
2018-04-15T16:01:27.753Z,99116.20
2018-04-15T16:03:55.256Z,99109.97
2018-04-15T16:06:22.789Z,99101.52
2018-04-15T16:08:50.385Z,99098.02
2018-04-15T16:11:18.493Z,99088.70
2018-04-15T16:13:46.008Z,99099.39
2018-04-15T16:16:13.517Z,99092.70
2018-04-15T16:18:41.185Z,99089.97
2018-04-15T16:21:08.791Z,99093.34
2018-04-15T16:23:36.305Z,99096.70
2018-04-15T16:26:03.839Z,99108.06
2018-04-15T16:28:31.366Z,99104.70
2018-04-15T16:30:59.040Z,99111.72
2018-04-15T16:33:26.583Z,99111.38
2018-04-15T16:35:54.095Z,99106.47
2018-04-15T16:38:21.617Z,99105.52
2018-04-15T16:40:49.125Z,99106.93
2018-04-15T16:43:16.688Z,99100.33
2018-04-15T16:45:44.197Z,99101.07
2018-04-15T16:48:12.458Z,99109.09
2018-04-15T16:50:40.008Z,99104.95
2018-04-15T16:53:07.553Z,99091.93
2018-04-15T16:55:35.136Z,99084.37
2018-04-15T16:58:03.615Z,99085.53
2018-04-15T17:00:31.175Z,99079.11
2018-04-15T17:02:58.687Z,99073.04
2018-04-15T17:05:26.199Z,99067.54
2018-04-15T17:07:53.692Z,99073.70
2018-04-15T17:10:21.228Z,99063.64
2018-04-15T17:12:48.710Z,99056.55
2018-04-15T17:15:16.229Z,99058.77
2018-04-15T17:17:43.737Z,99068.09
2018-04-15T17:20:11.216Z,99071.80
2018-04-15T17:22:38.906Z,99071.77
2018-04-15T17:25:06.471Z,99083.41
2018-04-15T17:27:34.001Z,99087.99
2018-04-15T17:30:01.814Z,99082.14
2018-04-15T17:32:29.509Z,99088.27
2018-04-15T17:35:03.175Z,99074.44
2018-04-15T17:37:30.708Z,99078.03
2018-04-15T17:39:58.236Z,99089.52
2018-04-15T17:42:26.331Z,99083.59
2018-04-15T17:44:53.897Z,99084.81
2018-04-15T17:47:21.440Z,99093.98
2018-04-15T17:49:48.969Z,99096.39
2018-04-15T17:52:16.505Z,99105.41
2018-04-15T17:54:44.038Z,99103.70
2018-04-15T17:57:11.544Z,99111.95
2018-04-15T17:59:39.538Z,99113.87
2018-04-15T18:02:07.035Z,99111.04
2018-04-15T18:04:34.761Z,99113.70
2018-04-15T18:07:02.366Z,99115.09
2018-04-15T18:09:29.937Z,99115.74
2018-04-15T18:11:57.469Z,99124.41
2018-04-15T18:14:25.071Z,99131.20
2018-04-15T18:16:52.617Z,99126.32
2018-04-15T18:19:20.156Z,99134.84
2018-04-15T18:21:47.683Z,99122.67
2018-04-15T18:24:15.197Z,99123.01
2018-04-15T18:26:42.685Z,99136.88
2018-04-15T18:29:10.216Z,99129.96
2018-04-15T18:31:37.754Z,99127.35
2018-04-15T18:34:05.270Z,99127.38
2018-04-15T18:36:32.765Z,99135.91
2018-04-15T18:39:00.294Z,99140.59
2018-04-15T18:41:27.880Z,99139.13
2018-04-15T18:43:55.983Z,99140.50
2018-04-15T18:46:23.501Z,99153.56
2018-04-15T18:48:51.027Z,99148.84
2018-04-15T18:51:18.571Z,99143.47
2018-04-15T18:53:46.101Z,99144.06
2018-04-15T18:56:13.642Z,99147.19
2018-04-15T18:58:41.177Z,99147.16
2018-04-15T19:01:08.682Z,99152.04
2018-04-15T19:03:36.224Z,99151.23
2018-04-15T19:06:03.721Z,99154.67
2018-04-15T19:08:31.257Z,99151.89
2018-04-15T19:10:58.827Z,99148.70
2018-04-15T19:13:28.351Z,99145.82
2018-04-15T19:15:55.936Z,99142.56
2018-04-15T19:18:23.523Z,99146.06
2018-04-15T19:20:51.027Z,99147.87
2018-04-15T19:23:18.537Z,99144.47
2018-04-15T19:25:46.127Z,99140.49
2018-04-15T19:28:13.744Z,99135.51
2018-04-15T19:30:41.315Z,99134.77
2018-04-15T19:33:09.285Z,99134.55
2018-04-15T19:35:36.875Z,99131.39
2018-04-15T19:38:04.535Z,99124.20
2018-04-15T19:40:32.016Z,99112.67
2018-04-15T19:42:59.544Z,99108.98
2018-04-15T19:45:27.096Z,99101.80
2018-04-15T19:47:54.588Z,99101.13
2018-04-15T19:50:22.214Z,99085.64
2018-04-15T19:52:49.705Z,99094.48
2018-04-15T19:55:17.228Z,99092.53
2018-04-15T19:57:44.760Z,99076.16
2018-04-15T20:00:12.373Z,99078.92
2018-04-15T20:02:39.892Z,99079.19
2018-04-15T20:05:07.529Z,99069.70
2018-04-15T20:07:35.032Z,99069.52
2018-04-15T20:10:02.581Z,99064.86
2018-04-15T20:12:30.068Z,99055.95
2018-04-15T20:14:57.594Z,99060.81
2018-04-15T20:17:25.743Z,99060.39
2018-04-15T20:19:53.296Z,99063.27
2018-04-15T20:22:21.169Z,99059.52
2018-04-15T20:24:48.853Z,99058.71
2018-04-15T20:27:16.372Z,99066.48
2018-04-15T20:29:44.038Z,99061.23
2018-04-15T20:32:11.917Z,99060.78
2018-04-15T20:34:39.436Z,99059.66
2018-04-15T20:37:06.960Z,99062.98
2018-04-15T20:39:35.885Z,99065.38
2018-04-15T20:42:03.522Z,99067.34
2018-04-15T20:44:31.133Z,99074.17
2018-04-15T20:46:58.642Z,99075.47
2018-04-15T20:49:26.153Z,99080.69
2018-04-15T20:51:53.651Z,99073.82
2018-04-15T20:54:21.193Z,99076.48
2018-04-15T20:56:48.695Z,99074.70
2018-04-15T20:59:16.260Z,99082.28
2018-04-15T21:01:43.772Z,99079.41
2018-04-15T21:04:11.310Z,99071.87
2018-04-15T21:06:38.869Z,99081.10
2018-04-15T21:09:06.406Z,99085.44
2018-04-15T21:11:34.783Z,99090.95
2018-04-15T21:14:02.372Z,99089.62
2018-04-15T21:16:29.906Z,99087.09
2018-04-15T21:18:57.553Z,99082.30
2018-04-15T21:21:25.099Z,99080.94
2018-04-15T21:23:52.611Z,99079.58
2018-04-15T21:26:20.123Z,99073.67
2018-04-15T21:28:47.625Z,99064.27
2018-04-15T21:31:15.160Z,99055.61
2018-04-15T21:33:42.703Z,99058.27
2018-04-15T21:36:10.229Z,99061.67
2018-04-15T21:38:37.878Z,99068.45
2018-04-15T21:41:05.563Z,99058.33
2018-04-15T21:43:33.053Z,99061.99
2018-04-15T21:46:00.565Z,99050.98
2018-04-15T21:48:28.091Z,99048.88
2018-04-15T21:50:55.592Z,99053.36
2018-04-15T21:53:23.241Z,99047.41
2018-04-15T21:55:50.959Z,99041.97
2018-04-15T21:58:20.001Z,99043.33
2018-04-15T22:00:47.502Z,99039.33
2018-04-15T22:03:15.791Z,99036.41
2018-04-15T22:05:43.402Z,99035.67
2018-04-15T22:08:10.957Z,99030.70
2018-04-15T22:10:38.664Z,99026.66
2018-04-15T22:13:06.581Z,99022.94
2018-04-15T22:15:34.196Z,99020.15
2018-04-15T22:18:01.815Z,99022.61
2018-04-15T22:20:29.470Z,99015.77
2018-04-15T22:22:57.555Z,99006.39
2018-04-15T22:25:25.877Z,99009.05
2018-04-15T22:27:53.526Z,99007.95
2018-04-15T22:30:21.182Z,99002.39
2018-04-15T22:32:48.981Z,98999.77
2018-04-15T22:35:16.490Z,99000.38
2018-04-15T22:37:44.811Z,98999.64
2018-04-15T22:40:12.358Z,98993.94
2018-04-15T22:42:39.897Z,98978.82
2018-04-15T22:45:07.780Z,98975.78
2018-04-15T22:47:35.358Z,98981.13
2018-04-15T22:50:08.464Z,98972.33
2018-04-15T22:52:35.966Z,98965.79
2018-04-15T22:55:03.487Z,98970.36
2018-04-15T22:57:30.996Z,98975.73
2018-04-15T22:59:58.494Z,98972.59
2018-04-15T23:02:26.516Z,98969.66
2018-04-15T23:04:54.046Z,98959.16
2018-04-15T23:07:21.567Z,98959.01
2018-04-15T23:09:49.105Z,98958.89
2018-04-15T23:12:16.606Z,98959.41
2018-04-15T23:14:44.104Z,98957.98
2018-04-15T23:17:11.618Z,98959.38
2018-04-15T23:19:39.107Z,98960.38
2018-04-15T23:22:06.592Z,98961.70
2018-04-15T23:24:34.118Z,98964.81
2018-04-15T23:27:01.606Z,98969.67
2018-04-15T23:29:29.125Z,98957.70
2018-04-15T23:31:58.098Z,98944.89
2018-04-15T23:34:25.643Z,98943.31
2018-04-15T23:36:53.144Z,98929.04
2018-04-15T23:39:20.635Z,98921.50
2018-04-15T23:41:48.138Z,98897.14
2018-04-15T23:44:15.693Z,98867.22
2018-04-15T23:46:43.193Z,98856.03
2018-04-15T23:49:10.711Z,98858.34
2018-04-15T23:51:38.203Z,98860.52
2018-04-15T23:54:05.717Z,98860.09
2018-04-15T23:56:33.213Z,98868.78
2018-04-15T23:59:00.693Z,98882.03
